sensor_id;sensor_type;location;lat;lon;timestamp;pressure;altitude;pressure_sealevel;temperature;humidity
11413;BME280;5762;43.256;26.960;2023-07-30T00:01:27;99178.95;;;20.60;100.00
11413;BME280;5762;43.256;26.960;2023-07-30T00:03:56;99175.74;;;20.55;100.00
11413;BME280;5762;43.256;26.960;2023-07-30T00:06:25;99178.66;;;20.52;100.00
11413;BME280;5762;43.256;26.960;2023-07-30T00:08:54;99181.28;;;20.58;100.00
11413;BME280;5762;43.256;26.960;2023-07-30T00:11:27;99178.45;;;20.51;100.00
11413;BME280;5762;43.256;26.960;2023-07-30T00:13:52;99173.16;;;20.52;100.00
11413;BME280;5762;43.256;26.960;2023-07-30T00:16:21;99174.33;;;20.51;100.00
11413;BME280;5762;43.256;26.960;2023-07-30T00:18:50;99172.91;;;20.44;100.00
11413;BME280;5762;43.256;26.960;2023-07-30T00:21:19;99164.63;;;20.40;100.00
11413;BME280;5762;43.256;26.960;2023-07-30T00:23:48;99166.38;;;20.39;100.00
11413;BME280;5762;43.256;26.960;2023-07-30T00:26:16;99160.78;;;20.32;100.00
11413;BME280;5762;43.256;26.960;2023-07-30T00:28:45;99163.70;;;20.29;100.00
11413;BME280;5762;43.256;26.960;2023-07-30T00:31:13;99168.94;;;20.25;100.00
11413;BME280;5762;43.256;26.960;2023-07-30T00:33:42;99165.73;;;20.19;100.00
11413;BME280;5762;43.256;26.960;2023-07-30T00:36:11;99164.58;;;20.20;100.00
11413;BME280;5762;43.256;26.960;2023-07-30T00:38:40;99171.61;;;20.18;100.00
11413;BME280;5762;43.256;26.960;2023-07-30T00:41:09;99173.98;;;20.19;100.00
11413;BME280;5762;43.256;26.960;2023-07-30T00:43:38;99175.63;;;20.07;100.00
11413;BME280;5762;43.256;26.960;2023-07-30T00:46:07;99165.89;;;19.96;100.00
11413;BME280;5762;43.256;26.960;2023-07-30T00:48:36;99173.88;;;19.92;100.00
11413;BME280;5762;43.256;26.960;2023-07-30T00:51:05;99175.99;;;19.89;100.00
11413;BME280;5762;43.256;26.960;2023-07-30T00:53:35;99178.16;;;19.89;100.00
11413;BME280;5762;43.256;26.960;2023-07-30T00:56:04;99170.45;;;19.85;100.00
11413;BME280;5762;43.256;26.960;2023-07-30T00:58:33;99171.16;;;19.79;100.00
11413;BME280;5762;43.256;26.960;2023-07-30T01:01:02;99175.20;;;19.71;100.00
11413;BME280;5762;43.256;26.960;2023-07-30T01:03:30;99175.16;;;19.68;100.00
11413;BME280;5762;43.256;26.960;2023-07-30T01:06:00;99181.48;;;19.72;100.00
11413;BME280;5762;43.256;26.960;2023-07-30T01:08:29;99185.61;;;19.72;100.00
11413;BME280;5762;43.256;26.960;2023-07-30T01:10:58;99187.61;;;19.75;100.00
11413;BME280;5762;43.256;26.960;2023-07-30T01:13:27;99183.23;;;19.70;100.00
11413;BME280;5762;43.256;26.960;2023-07-30T01:15:57;99192.27;;;19.71;100.00
11413;BME280;5762;43.256;26.960;2023-07-30T01:18:26;99195.59;;;19.70;100.00
11413;BME280;5762;43.256;26.960;2023-07-30T01:20:58;99195.22;;;19.72;100.00
11413;BME280;5762;43.256;26.960;2023-07-30T01:23:27;99193.84;;;19.72;100.00
11413;BME280;5762;43.256;26.960;2023-07-30T01:25:59;99196.02;;;19.72;100.00
11413;BME280;5762;43.256;26.960;2023-07-30T01:28:25;99197.91;;;19.68;100.00
11413;BME280;5762;43.256;26.960;2023-07-30T01:30:55;99193.16;;;19.65;100.00
11413;BME280;5762;43.256;26.960;2023-07-30T01:33:24;99195.06;;;19.61;100.00
11413;BME280;5762;43.256;26.960;2023-07-30T01:35:53;99196.28;;;19.64;100.00
11413;BME280;5762;43.256;26.960;2023-07-30T01:38:23;99196.39;;;19.58;100.00
11413;BME280;5762;43.256;26.960;2023-07-30T01:40:52;99197.92;;;19.55;100.00
11413;BME280;5762;43.256;26.960;2023-07-30T01:43:21;99200.16;;;19.50;100.00
11413;BME280;5762;43.256;26.960;2023-07-30T01:45:50;99202.91;;;19.50;100.00
11413;BME280;5762;43.256;26.960;2023-07-30T01:48:19;99213.67;;;19.49;100.00
11413;BME280;5762;43.256;26.960;2023-07-30T01:50:48;99206.17;;;19.46;100.00
11413;BME280;5762;43.256;26.960;2023-07-30T01:53:16;99210.61;;;19.40;100.00
11413;BME280;5762;43.256;26.960;2023-07-30T01:55:45;99216.23;;;19.34;100.00
11413;BME280;5762;43.256;26.960;2023-07-30T01:58:14;99221.41;;;19.39;100.00
11413;BME280;5762;43.256;26.960;2023-07-30T02:00:43;99214.72;;;19.40;100.00
11413;BME280;5762;43.256;26.960;2023-07-30T02:03:12;99218.39;;;19.35;100.00
11413;BME280;5762;43.256;26.960;2023-07-30T02:05:41;99221.08;;;19.31;100.00
11413;BME280;5762;43.256;26.960;2023-07-30T02:08:09;99223.03;;;19.31;100.00
11413;BME280;5762;43.256;26.960;2023-07-30T02:10:38;99215.75;;;19.29;100.00
11413;BME280;5762;43.256;26.960;2023-07-30T02:13:07;99215.22;;;19.33;100.00
11413;BME280;5762;43.256;26.960;2023-07-30T02:15:35;99221.97;;;19.26;100.00
11413;BME280;5762;43.256;26.960;2023-07-30T02:18:04;99218.95;;;19.21;100.00
11413;BME280;5762;43.256;26.960;2023-07-30T02:20:33;99216.73;;;19.17;100.00
11413;BME280;5762;43.256;26.960;2023-07-30T02:23:02;99222.64;;;19.19;100.00
11413;BME280;5762;43.256;26.960;2023-07-30T02:25:31;99219.20;;;19.13;100.00
11413;BME280;5762;43.256;26.960;2023-07-30T02:28:00;99225.00;;;19.07;100.00
11413;BME280;5762;43.256;26.960;2023-07-30T02:30:29;99227.59;;;19.10;100.00
11413;BME280;5762;43.256;26.960;2023-07-30T02:32:57;99228.31;;;19.07;100.00
11413;BME280;5762;43.256;26.960;2023-07-30T02:35:26;99229.54;;;19.09;100.00
11413;BME280;5762;43.256;26.960;2023-07-30T02:37:57;99231.91;;;19.11;100.00
11413;BME280;5762;43.256;26.960;2023-07-30T02:40:26;99237.13;;;19.06;100.00
11413;BME280;5762;43.256;26.960;2023-07-30T02:42:54;99243.83;;;19.09;100.00
11413;BME280;5762;43.256;26.960;2023-07-30T02:45:22;99244.05;;;19.10;100.00
11413;BME280;5762;43.256;26.960;2023-07-30T02:47:51;99250.05;;;19.06;100.00
11413;BME280;5762;43.256;26.960;2023-07-30T02:50:19;99247.13;;;19.05;100.00
11413;BME280;5762;43.256;26.960;2023-07-30T02:52:48;99246.15;;;19.07;100.00
11413;BME280;5762;43.256;26.960;2023-07-30T02:55:16;99260.30;;;19.09;100.00
11413;BME280;5762;43.256;26.960;2023-07-30T02:57:45;99261.56;;;19.02;100.00
11413;BME280;5762;43.256;26.960;2023-07-30T03:00:14;99252.77;;;19.02;100.00
11413;BME280;5762;43.256;26.960;2023-07-30T03:02:43;99255.72;;;19.03;100.00
11413;BME280;5762;43.256;26.960;2023-07-30T03:05:12;99259.41;;;19.01;100.00
11413;BME280;5762;43.256;26.960;2023-07-30T03:07:41;99258.83;;;19.02;100.00
11413;BME280;5762;43.256;26.960;2023-07-30T03:10:10;99262.14;;;19.01;100.00
11413;BME280;5762;43.256;26.960;2023-07-30T03:12:38;99261.94;;;19.00;100.00
11413;BME280;5762;43.256;26.960;2023-07-30T03:15:07;99262.14;;;19.01;100.00
11413;BME280;5762;43.256;26.960;2023-07-30T03:17:36;99262.03;;;19.07;100.00
11413;BME280;5762;43.256;26.960;2023-07-30T03:20:05;99259.34;;;19.11;100.00
11413;BME280;5762;43.256;26.960;2023-07-30T03:22:35;99262.61;;;19.07;100.00
11413;BME280;5762;43.256;26.960;2023-07-30T03:25:04;99267.27;;;19.03;100.00
11413;BME280;5762;43.256;26.960;2023-07-30T03:27:33;99268.00;;;19.00;100.00
11413;BME280;5762;43.256;26.960;2023-07-30T03:30:02;99262.23;;;18.95;100.00
11413;BME280;5762;43.256;26.960;2023-07-30T03:32:32;99269.88;;;18.96;100.00
11413;BME280;5762;43.256;26.960;2023-07-30T03:35:00;99272.48;;;18.98;100.00
11413;BME280;5762;43.256;26.960;2023-07-30T03:37:31;99278.02;;;19.02;100.00
11413;BME280;5762;43.256;26.960;2023-07-30T03:40:00;99277.87;;;19.04;100.00
11413;BME280;5762;43.256;26.960;2023-07-30T03:42:29;99283.30;;;19.14;100.00
11413;BME280;5762;43.256;26.960;2023-07-30T03:44:58;99282.58;;;19.17;100.00
11413;BME280;5762;43.256;26.960;2023-07-30T03:47:27;99282.02;;;19.08;100.00
11413;BME280;5762;43.256;26.960;2023-07-30T03:49:56;99282.36;;;19.16;100.00
11413;BME280;5762;43.256;26.960;2023-07-30T03:52:24;99279.95;;;19.24;100.00
11413;BME280;5762;43.256;26.960;2023-07-30T03:54:53;99279.70;;;19.33;100.00
11413;BME280;5762;43.256;26.960;2023-07-30T03:57:22;99283.76;;;19.42;100.00
11413;BME280;5762;43.256;26.960;2023-07-30T03:59:51;99282.08;;;19.48;100.00
11413;BME280;5762;43.256;26.960;2023-07-30T04:02:20;99279.91;;;19.57;100.00
11413;BME280;5762;43.256;26.960;2023-07-30T04:04:49;99284.50;;;19.62;100.00
11413;BME280;5762;43.256;26.960;2023-07-30T04:07:18;99287.70;;;19.81;100.00
11413;BME280;5762;43.256;26.960;2023-07-30T04:09:46;99284.63;;;19.99;100.00
11413;BME280;5762;43.256;26.960;2023-07-30T04:12:15;99284.94;;;20.07;100.00
11413;BME280;5762;43.256;26.960;2023-07-30T04:14:45;99282.89;;;20.18;100.00
11413;BME280;5762;43.256;26.960;2023-07-30T04:17:13;99277.74;;;20.29;100.00
11413;BME280;5762;43.256;26.960;2023-07-30T04:19:42;99283.20;;;20.39;100.00
11413;BME280;5762;43.256;26.960;2023-07-30T04:22:11;99283.34;;;20.53;100.00
11413;BME280;5762;43.256;26.960;2023-07-30T04:24:40;99286.26;;;20.67;100.00
11413;BME280;5762;43.256;26.960;2023-07-30T04:27:09;99284.59;;;20.80;100.00
11413;BME280;5762;43.256;26.960;2023-07-30T04:29:38;99277.66;;;20.93;100.00
11413;BME280;5762;43.256;26.960;2023-07-30T04:32:07;99284.23;;;21.01;100.00
11413;BME280;5762;43.256;26.960;2023-07-30T04:34:36;99284.75;;;21.18;100.00
11413;BME280;5762;43.256;26.960;2023-07-30T04:37:05;99286.55;;;21.20;100.00
11413;BME280;5762;43.256;26.960;2023-07-30T04:39:35;99285.96;;;21.20;100.00
11413;BME280;5762;43.256;26.960;2023-07-30T04:42:04;99285.13;;;21.33;100.00
11413;BME280;5762;43.256;26.960;2023-07-30T04:44:32;99288.31;;;21.38;100.00
11413;BME280;5762;43.256;26.960;2023-07-30T04:47:01;99285.83;;;21.50;100.00
11413;BME280;5762;43.256;26.960;2023-07-30T04:49:30;99283.51;;;21.56;100.00
11413;BME280;5762;43.256;26.960;2023-07-30T04:51:59;99283.00;;;21.67;100.00
11413;BME280;5762;43.256;26.960;2023-07-30T04:54:27;99282.70;;;21.79;100.00
11413;BME280;5762;43.256;26.960;2023-07-30T04:56:56;99283.53;;;21.90;100.00
11413;BME280;5762;43.256;26.960;2023-07-30T04:59:25;99277.94;;;22.03;100.00
11413;BME280;5762;43.256;26.960;2023-07-30T05:01:54;99269.30;;;22.09;100.00
11413;BME280;5762;43.256;26.960;2023-07-30T05:04:22;99266.98;;;22.18;100.00
11413;BME280;5762;43.256;26.960;2023-07-30T05:06:50;99263.83;;;22.23;100.00
11413;BME280;5762;43.256;26.960;2023-07-30T05:09:18;99254.45;;;22.38;100.00
11413;BME280;5762;43.256;26.960;2023-07-30T05:11:48;99242.66;;;22.48;100.00
11413;BME280;5762;43.256;26.960;2023-07-30T05:14:17;99232.05;;;22.64;100.00
11413;BME280;5762;43.256;26.960;2023-07-30T05:16:45;99223.20;;;22.76;100.00
11413;BME280;5762;43.256;26.960;2023-07-30T05:19:14;99221.03;;;22.75;100.00
11413;BME280;5762;43.256;26.960;2023-07-30T05:21:43;99207.66;;;22.91;100.00
11413;BME280;5762;43.256;26.960;2023-07-30T05:24:11;99208.45;;;22.95;100.00
11413;BME280;5762;43.256;26.960;2023-07-30T05:26:40;99204.91;;;23.13;100.00
11413;BME280;5762;43.256;26.960;2023-07-30T05:29:09;99204.52;;;23.21;100.00
11413;BME280;5762;43.256;26.960;2023-07-30T05:31:38;99206.66;;;23.29;100.00
11413;BME280;5762;43.256;26.960;2023-07-30T05:34:07;99212.76;;;23.43;100.00
11413;BME280;5762;43.256;26.960;2023-07-30T05:36:35;99207.84;;;23.53;100.00
11413;BME280;5762;43.256;26.960;2023-07-30T05:39:04;99216.52;;;23.55;100.00
11413;BME280;5762;43.256;26.960;2023-07-30T05:41:33;99211.34;;;23.64;100.00
11413;BME280;5762;43.256;26.960;2023-07-30T05:44:02;99218.04;;;23.73;100.00
11413;BME280;5762;43.256;26.960;2023-07-30T05:46:31;99221.16;;;23.90;100.00
11413;BME280;5762;43.256;26.960;2023-07-30T05:49:00;99221.08;;;24.08;100.00
11413;BME280;5762;43.256;26.960;2023-07-30T05:51:29;99226.97;;;24.17;100.00
11413;BME280;5762;43.256;26.960;2023-07-30T05:53:57;99230.81;;;24.41;100.00
11413;BME280;5762;43.256;26.960;2023-07-30T05:56:26;99231.42;;;24.36;100.00
11413;BME280;5762;43.256;26.960;2023-07-30T05:58:55;99236.51;;;24.49;100.00
11413;BME280;5762;43.256;26.960;2023-07-30T06:01:24;99234.30;;;24.55;100.00
11413;BME280;5762;43.256;26.960;2023-07-30T06:03:52;99231.92;;;24.57;100.00
11413;BME280;5762;43.256;26.960;2023-07-30T06:06:21;99239.33;;;24.71;100.00
11413;BME280;5762;43.256;26.960;2023-07-30T06:08:50;99241.63;;;24.83;100.00
11413;BME280;5762;43.256;26.960;2023-07-30T06:11:19;99248.28;;;24.93;100.00
11413;BME280;5762;43.256;26.960;2023-07-30T06:13:48;99242.44;;;25.10;100.00
11413;BME280;5762;43.256;26.960;2023-07-30T06:16:16;99238.06;;;25.12;100.00
11413;BME280;5762;43.256;26.960;2023-07-30T06:18:46;99236.34;;;25.29;100.00
11413;BME280;5762;43.256;26.960;2023-07-30T06:21:15;99237.93;;;25.49;100.00
11413;BME280;5762;43.256;26.960;2023-07-30T06:23:44;99244.31;;;25.64;100.00
11413;BME280;5762;43.256;26.960;2023-07-30T06:26:13;99253.77;;;25.70;100.00
11413;BME280;5762;43.256;26.960;2023-07-30T06:28:41;99257.62;;;25.80;100.00
11413;BME280;5762;43.256;26.960;2023-07-30T06:31:10;99261.80;;;25.99;100.00
11413;BME280;5762;43.256;26.960;2023-07-30T06:33:39;99257.63;;;26.14;100.00
11413;BME280;5762;43.256;26.960;2023-07-30T06:36:08;99255.27;;;26.13;100.00
11413;BME280;5762;43.256;26.960;2023-07-30T06:38:37;99251.17;;;26.24;100.00
11413;BME280;5762;43.256;26.960;2023-07-30T06:41:06;99253.48;;;26.33;100.00
11413;BME280;5762;43.256;26.960;2023-07-30T06:43:35;99255.77;;;26.38;100.00
11413;BME280;5762;43.256;26.960;2023-07-30T06:46:04;99262.94;;;26.51;100.00
11413;BME280;5762;43.256;26.960;2023-07-30T06:48:32;99257.98;;;26.65;100.00
11413;BME280;5762;43.256;26.960;2023-07-30T06:51:01;99257.67;;;26.71;100.00
11413;BME280;5762;43.256;26.960;2023-07-30T06:53:30;99257.66;;;26.87;100.00
11413;BME280;5762;43.256;26.960;2023-07-30T06:55:59;99259.59;;;26.90;100.00
11413;BME280;5762;43.256;26.960;2023-07-30T06:58:27;99252.20;;;26.80;100.00
11413;BME280;5762;43.256;26.960;2023-07-30T07:00:56;99258.34;;;26.94;100.00
11413;BME280;5762;43.256;26.960;2023-07-30T07:03:25;99253.97;;;26.97;100.00
11413;BME280;5762;43.256;26.960;2023-07-30T07:05:54;99254.28;;;27.02;100.00
11413;BME280;5762;43.256;26.960;2023-07-30T07:08:23;99255.30;;;27.12;100.00
11413;BME280;5762;43.256;26.960;2023-07-30T07:10:52;99265.89;;;27.32;100.00
11413;BME280;5762;43.256;26.960;2023-07-30T07:13:21;99274.81;;;27.44;100.00
11413;BME280;5762;43.256;26.960;2023-07-30T07:15:49;99262.03;;;27.61;100.00
11413;BME280;5762;43.256;26.960;2023-07-30T07:18:19;99260.78;;;27.74;100.00
11413;BME280;5762;43.256;26.960;2023-07-30T07:20:47;99272.98;;;27.80;100.00
11413;BME280;5762;43.256;26.960;2023-07-30T07:23:16;99263.47;;;28.01;100.00
11413;BME280;5762;43.256;26.960;2023-07-30T07:25:45;99268.55;;;28.14;100.00
11413;BME280;5762;43.256;26.960;2023-07-30T07:28:13;99267.80;;;28.33;100.00
11413;BME280;5762;43.256;26.960;2023-07-30T07:30:42;99274.46;;;28.56;100.00
11413;BME280;5762;43.256;26.960;2023-07-30T07:33:11;99282.38;;;28.57;100.00
11413;BME280;5762;43.256;26.960;2023-07-30T07:35:40;99278.23;;;28.65;100.00
11413;BME280;5762;43.256;26.960;2023-07-30T07:38:09;99293.58;;;28.74;100.00
11413;BME280;5762;43.256;26.960;2023-07-30T07:40:38;99297.14;;;28.74;100.00
11413;BME280;5762;43.256;26.960;2023-07-30T07:43:09;99288.41;;;29.00;100.00
11413;BME280;5762;43.256;26.960;2023-07-30T07:45:37;99294.00;;;29.08;100.00
11413;BME280;5762;43.256;26.960;2023-07-30T07:48:06;99287.98;;;29.26;100.00
11413;BME280;5762;43.256;26.960;2023-07-30T07:50:35;99294.61;;;29.40;100.00
11413;BME280;5762;43.256;26.960;2023-07-30T07:53:04;99294.88;;;29.54;100.00
11413;BME280;5762;43.256;26.960;2023-07-30T07:55:33;99300.59;;;29.79;100.00
11413;BME280;5762;43.256;26.960;2023-07-30T07:58:03;99283.56;;;29.82;100.00
11413;BME280;5762;43.256;26.960;2023-07-30T08:00:31;99281.62;;;30.03;100.00
11413;BME280;5762;43.256;26.960;2023-07-30T08:02:59;99277.79;;;30.05;100.00
11413;BME280;5762;43.256;26.960;2023-07-30T08:05:28;99275.33;;;30.28;100.00
11413;BME280;5762;43.256;26.960;2023-07-30T08:07:57;99274.72;;;30.49;100.00
11413;BME280;5762;43.256;26.960;2023-07-30T08:10:26;99277.64;;;30.58;100.00
11413;BME280;5762;43.256;26.960;2023-07-30T08:12:55;99279.44;;;30.65;100.00
11413;BME280;5762;43.256;26.960;2023-07-30T08:15:24;99285.98;;;30.66;100.00
11413;BME280;5762;43.256;26.960;2023-07-30T08:17:53;99288.01;;;30.79;100.00
11413;BME280;5762;43.256;26.960;2023-07-30T08:20:22;99285.42;;;30.97;100.00
11413;BME280;5762;43.256;26.960;2023-07-30T08:22:50;99282.97;;;31.12;100.00
11413;BME280;5762;43.256;26.960;2023-07-30T08:25:19;99291.74;;;31.06;100.00
11413;BME280;5762;43.256;26.960;2023-07-30T08:27:48;99282.60;;;31.18;100.00
11413;BME280;5762;43.256;26.960;2023-07-30T08:30:17;99284.41;;;31.29;100.00
11413;BME280;5762;43.256;26.960;2023-07-30T08:32:46;99281.88;;;31.39;100.00
11413;BME280;5762;43.256;26.960;2023-07-30T08:35:14;99279.13;;;31.74;100.00
11413;BME280;5762;43.256;26.960;2023-07-30T08:37:43;99277.61;;;31.99;100.00
11413;BME280;5762;43.256;26.960;2023-07-30T08:40:12;99279.58;;;32.11;100.00
11413;BME280;5762;43.256;26.960;2023-07-30T08:42:41;99273.36;;;32.12;100.00
11413;BME280;5762;43.256;26.960;2023-07-30T08:45:10;99265.96;;;32.44;100.00
11413;BME280;5762;43.256;26.960;2023-07-30T08:47:43;99276.77;;;32.59;100.00
11413;BME280;5762;43.256;26.960;2023-07-30T08:50:08;99267.48;;;32.72;100.00
11413;BME280;5762;43.256;26.960;2023-07-30T08:52:36;99265.38;;;32.80;100.00
11413;BME280;5762;43.256;26.960;2023-07-30T08:55:05;99265.64;;;33.13;100.00
11413;BME280;5762;43.256;26.960;2023-07-30T08:57:35;99262.55;;;33.20;100.00
11413;BME280;5762;43.256;26.960;2023-07-30T09:00:04;99265.16;;;33.10;100.00
11413;BME280;5762;43.256;26.960;2023-07-30T09:05:02;99253.54;;;33.30;100.00
11413;BME280;5762;43.256;26.960;2023-07-30T09:07:32;99257.49;;;33.60;100.00
11413;BME280;5762;43.256;26.960;2023-07-30T09:10:00;99255.76;;;33.67;100.00
11413;BME280;5762;43.256;26.960;2023-07-30T09:12:30;99252.67;;;33.83;100.00
11413;BME280;5762;43.256;26.960;2023-07-30T09:14:58;99250.00;;;33.98;100.00
11413;BME280;5762;43.256;26.960;2023-07-30T09:17:26;99246.23;;;34.15;100.00
11413;BME280;5762;43.256;26.960;2023-07-30T09:19:54;99241.98;;;34.38;100.00
11413;BME280;5762;43.256;26.960;2023-07-30T09:22:26;99243.22;;;34.46;100.00
11413;BME280;5762;43.256;26.960;2023-07-30T09:24:55;99242.12;;;34.43;100.00
11413;BME280;5762;43.256;26.960;2023-07-30T09:27:24;99238.52;;;34.52;100.00
11413;BME280;5762;43.256;26.960;2023-07-30T09:29:54;99242.78;;;34.34;100.00
11413;BME280;5762;43.256;26.960;2023-07-30T09:32:26;99230.57;;;34.46;100.00
11413;BME280;5762;43.256;26.960;2023-07-30T09:34:55;99227.45;;;34.44;100.00
11413;BME280;5762;43.256;26.960;2023-07-30T09:37:23;99231.42;;;34.66;100.00
11413;BME280;5762;43.256;26.960;2023-07-30T09:39:52;99228.13;;;34.67;100.00
11413;BME280;5762;43.256;26.960;2023-07-30T09:42:22;99229.19;;;34.79;100.00
11413;BME280;5762;43.256;26.960;2023-07-30T09:44:51;99227.17;;;35.08;100.00
11413;BME280;5762;43.256;26.960;2023-07-30T09:47:19;99222.27;;;35.17;100.00
11413;BME280;5762;43.256;26.960;2023-07-30T09:49:48;99224.86;;;35.35;100.00
11413;BME280;5762;43.256;26.960;2023-07-30T09:52:17;99220.59;;;34.78;100.00
11413;BME280;5762;43.256;26.960;2023-07-30T09:54:46;99214.81;;;34.86;100.00
11413;BME280;5762;43.256;26.960;2023-07-30T09:57:16;99222.93;;;35.12;100.00
11413;BME280;5762;43.256;26.960;2023-07-30T09:59:44;99212.82;;;35.34;98.40
11413;BME280;5762;43.256;26.960;2023-07-30T10:02:12;99215.28;;;35.37;95.01
11413;BME280;5762;43.256;26.960;2023-07-30T10:04:43;99207.52;;;35.51;92.73
11413;BME280;5762;43.256;26.960;2023-07-30T10:07:12;99206.92;;;35.66;97.32
11413;BME280;5762;43.256;26.960;2023-07-30T10:09:41;99203.85;;;35.79;93.61
11413;BME280;5762;43.256;26.960;2023-07-30T10:12:16;99199.17;;;35.95;95.39
11413;BME280;5762;43.256;26.960;2023-07-30T10:14:45;99201.23;;;36.05;89.74
11413;BME280;5762;43.256;26.960;2023-07-30T10:17:14;99193.05;;;35.97;88.24
11413;BME280;5762;43.256;26.960;2023-07-30T10:19:47;99195.44;;;35.55;91.91
11413;BME280;5762;43.256;26.960;2023-07-30T10:24:57;99192.80;;;35.90;89.19
11413;BME280;5762;43.256;26.960;2023-07-30T10:27:26;99184.28;;;36.09;84.97
11413;BME280;5762;43.256;26.960;2023-07-30T10:35:09;99188.64;;;36.30;79.74
11413;BME280;5762;43.256;26.960;2023-07-30T10:37:44;99183.00;;;36.54;75.83
11413;BME280;5762;43.256;26.960;2023-07-30T10:40:15;99181.62;;;36.25;74.12
11413;BME280;5762;43.256;26.960;2023-07-30T10:42:38;99173.70;;;36.58;74.81
11413;BME280;5762;43.256;26.960;2023-07-30T10:45:07;99165.13;;;36.68;70.92
11413;BME280;5762;43.256;26.960;2023-07-30T10:47:35;99162.34;;;36.78;70.32
11413;BME280;5762;43.256;26.960;2023-07-30T10:50:04;99167.28;;;36.83;71.75
11413;BME280;5762;43.256;26.960;2023-07-30T10:52:35;99155.09;;;36.56;71.47
11413;BME280;5762;43.256;26.960;2023-07-30T10:55:03;99163.48;;;36.86;72.51
11413;BME280;5762;43.256;26.960;2023-07-30T10:57:32;99152.34;;;37.17;69.15
11413;BME280;5762;43.256;26.960;2023-07-30T11:00:01;99152.16;;;37.21;67.21
11413;BME280;5762;43.256;26.960;2023-07-30T11:02:30;99143.61;;;37.36;67.30
11413;BME280;5762;43.256;26.960;2023-07-30T11:05:10;99145.23;;;37.32;71.60
11413;BME280;5762;43.256;26.960;2023-07-30T11:07:28;99149.66;;;37.08;71.42
11413;BME280;5762;43.256;26.960;2023-07-30T11:10:00;99147.50;;;36.63;69.13
11413;BME280;5762;43.256;26.960;2023-07-30T11:12:29;99144.09;;;36.73;63.93
11413;BME280;5762;43.256;26.960;2023-07-30T11:15:00;99136.41;;;36.94;61.24
11413;BME280;5762;43.256;26.960;2023-07-30T11:17:28;99133.45;;;36.93;60.37
11413;BME280;5762;43.256;26.960;2023-07-30T11:19:57;99133.88;;;36.96;67.87
11413;BME280;5762;43.256;26.960;2023-07-30T11:22:30;99125.62;;;36.93;66.84
11413;BME280;5762;43.256;26.960;2023-07-30T11:24:58;99122.03;;;37.02;63.82
11413;BME280;5762;43.256;26.960;2023-07-30T11:27:27;99119.98;;;36.93;63.54
11413;BME280;5762;43.256;26.960;2023-07-30T11:29:56;99110.85;;;37.13;65.36
11413;BME280;5762;43.256;26.960;2023-07-30T11:32:27;99106.35;;;37.57;60.28
11413;BME280;5762;43.256;26.960;2023-07-30T11:34:55;99102.03;;;37.72;57.28
11413;BME280;5762;43.256;26.960;2023-07-30T11:37:24;99104.00;;;37.76;55.53
11413;BME280;5762;43.256;26.960;2023-07-30T11:39:53;99105.44;;;37.56;58.05
11413;BME280;5762;43.256;26.960;2023-07-30T11:42:22;99098.85;;;37.75;56.20
11413;BME280;5762;43.256;26.960;2023-07-30T11:44:51;99099.70;;;37.86;56.14
11413;BME280;5762;43.256;26.960;2023-07-30T11:47:22;99097.39;;;38.16;53.28
11413;BME280;5762;43.256;26.960;2023-07-30T11:50:01;99106.14;;;37.71;55.84
11413;BME280;5762;43.256;26.960;2023-07-30T11:52:26;99096.30;;;38.08;54.46
11413;BME280;5762;43.256;26.960;2023-07-30T11:55:01;99093.56;;;38.04;51.45
11413;BME280;5762;43.256;26.960;2023-07-30T11:57:35;99085.91;;;38.10;53.82
11413;BME280;5762;43.256;26.960;2023-07-30T12:00:05;99082.95;;;38.46;51.91
11413;BME280;5762;43.256;26.960;2023-07-30T12:02:34;99081.03;;;38.69;51.71
11413;BME280;5762;43.256;26.960;2023-07-30T12:05:03;99079.00;;;38.75;53.48
11413;BME280;5762;43.256;26.960;2023-07-30T12:07:32;99071.98;;;38.92;56.24
11413;BME280;5762;43.256;26.960;2023-07-30T12:10:10;99071.63;;;38.67;53.60
11413;BME280;5762;43.256;26.960;2023-07-30T12:12:43;99061.84;;;38.63;52.45
11413;BME280;5762;43.256;26.960;2023-07-30T12:15:10;99064.94;;;38.06;54.30
11413;BME280;5762;43.256;26.960;2023-07-30T12:17:41;99053.49;;;38.42;53.31
11413;BME280;5762;43.256;26.960;2023-07-30T12:20:15;99053.83;;;38.34;50.94
11413;BME280;5762;43.256;26.960;2023-07-30T12:22:40;99051.20;;;38.46;52.17
11413;BME280;5762;43.256;26.960;2023-07-30T12:25:09;99053.61;;;38.97;50.88
11413;BME280;5762;43.256;26.960;2023-07-30T12:27:37;99051.25;;;38.79;48.05
11413;BME280;5762;43.256;26.960;2023-07-30T12:30:06;99043.64;;;39.07;47.90
11413;BME280;5762;43.256;26.960;2023-07-30T12:32:35;99040.17;;;38.75;51.07
11413;BME280;5762;43.256;26.960;2023-07-30T12:35:04;99036.55;;;39.02;52.86
11413;BME280;5762;43.256;26.960;2023-07-30T12:37:33;99030.79;;;39.23;51.81
11413;BME280;5762;43.256;26.960;2023-07-30T12:40:02;99036.58;;;39.13;53.80
11413;BME280;5762;43.256;26.960;2023-07-30T12:42:32;99033.69;;;38.64;55.53
11413;BME280;5762;43.256;26.960;2023-07-30T12:45:00;99031.05;;;38.28;56.03
11413;BME280;5762;43.256;26.960;2023-07-30T12:47:29;99031.34;;;38.14;57.44
11413;BME280;5762;43.256;26.960;2023-07-30T12:49:58;99022.64;;;38.02;54.66
11413;BME280;5762;43.256;26.960;2023-07-30T12:52:26;99020.44;;;38.17;56.31
11413;BME280;5762;43.256;26.960;2023-07-30T12:54:55;99022.05;;;38.08;55.27
11413;BME280;5762;43.256;26.960;2023-07-30T12:57:23;99018.41;;;38.02;56.18
11413;BME280;5762;43.256;26.960;2023-07-30T12:59:52;99016.20;;;38.17;55.22
11413;BME280;5762;43.256;26.960;2023-07-30T13:02:20;99010.07;;;38.45;55.21
11413;BME280;5762;43.256;26.960;2023-07-30T13:04:49;99020.41;;;37.96;54.82
11413;BME280;5762;43.256;26.960;2023-07-30T13:07:18;99013.82;;;37.05;55.05
11413;BME280;5762;43.256;26.960;2023-07-30T13:09:47;99005.97;;;38.25;50.89
11413;BME280;5762;43.256;26.960;2023-07-30T13:12:15;99010.30;;;37.99;52.04